createdAt,value
2022-08-26T00:01:53.990Z,17.90
2022-08-26T00:04:23.918Z,17.90
2022-08-26T00:06:51.958Z,17.90
2022-08-26T00:09:19.437Z,17.80
2022-08-26T00:11:47.598Z,17.80
2022-08-26T00:14:16.657Z,17.70
2022-08-26T00:16:48.016Z,17.70
2022-08-26T00:19:20.773Z,17.70
2022-08-26T00:21:49.631Z,17.60
2022-08-26T00:24:19.600Z,17.50
2022-08-26T00:26:47.801Z,17.50
2022-08-26T00:29:16.094Z,17.50
2022-08-26T00:31:45.112Z,17.50
2022-08-26T00:34:13.930Z,17.40
2022-08-26T00:36:41.423Z,17.40
2022-08-26T00:39:09.431Z,17.50
2022-08-26T00:41:40.408Z,17.40
2022-08-26T00:44:11.342Z,17.40
2022-08-26T00:46:49.240Z,17.40
2022-08-26T00:49:26.185Z,17.30
2022-08-26T00:51:57.337Z,17.30
2022-08-26T00:54:30.919Z,17.30
2022-08-26T00:57:00.469Z,17.20
2022-08-26T00:59:32.862Z,17.20
2022-08-26T01:02:02.741Z,17.20
2022-08-26T01:04:33.780Z,17.20
2022-08-26T01:07:02.518Z,17.10
2022-08-26T01:09:30.678Z,17.10
2022-08-26T01:12:01.073Z,17.10
2022-08-26T01:14:35.179Z,17.10
2022-08-26T01:17:07.212Z,17.10
2022-08-26T01:19:47.672Z,17.10
2022-08-26T01:22:26.748Z,17.00
2022-08-26T01:24:59.090Z,17.00
2022-08-26T01:27:32.635Z,17.00
2022-08-26T01:30:01.518Z,17.00
2022-08-26T01:32:32.199Z,16.90
2022-08-26T01:35:01.086Z,16.90
2022-08-26T01:37:35.145Z,16.90
2022-08-26T01:40:03.112Z,16.90
2022-08-26T01:42:31.049Z,16.90
2022-08-26T01:45:15.365Z,16.90
2022-08-26T01:47:45.040Z,16.80
2022-08-26T01:50:18.055Z,16.90
2022-08-26T01:52:57.921Z,16.90
2022-08-26T01:55:32.269Z,16.80
2022-08-26T01:58:05.822Z,16.80
2022-08-26T02:00:35.616Z,16.80
2022-08-26T02:03:17.370Z,16.70
2022-08-26T02:05:48.847Z,16.70
2022-08-26T02:08:24.576Z,16.70
2022-08-26T02:10:54.781Z,16.70
2022-08-26T02:13:23.371Z,16.60
2022-08-26T02:15:52.662Z,16.60
2022-08-26T02:18:20.658Z,16.60
2022-08-26T02:20:51.722Z,16.50
2022-08-26T02:23:19.284Z,16.50
2022-08-26T02:26:01.044Z,16.50
2022-08-26T02:28:33.496Z,16.50
2022-08-26T02:31:01.776Z,16.50
2022-08-26T02:33:30.927Z,16.50
2022-08-26T02:35:59.635Z,16.50
2022-08-26T02:38:27.108Z,16.50
2022-08-26T02:40:54.758Z,16.40
2022-08-26T02:43:31.185Z,16.40
2022-08-26T02:46:01.731Z,16.40
2022-08-26T02:48:29.872Z,16.30
2022-08-26T02:51:00.095Z,16.40
2022-08-26T02:53:28.149Z,16.40
2022-08-26T02:55:59.835Z,16.30
2022-08-26T02:58:28.036Z,16.30
2022-08-26T03:00:55.799Z,16.30
2022-08-26T03:03:23.749Z,16.30
2022-08-26T03:05:54.553Z,16.30
2022-08-26T03:08:22.604Z,16.30
2022-08-26T03:10:50.293Z,16.30
2022-08-26T03:13:18.830Z,16.30
2022-08-26T03:15:47.643Z,16.30
2022-08-26T03:18:15.432Z,16.30
2022-08-26T03:20:42.751Z,16.40
2022-08-26T03:23:11.590Z,16.40
2022-08-26T03:25:40.187Z,16.30
2022-08-26T03:28:07.799Z,16.40
2022-08-26T03:30:39.976Z,16.40
2022-08-26T03:33:13.660Z,16.40
2022-08-26T03:35:43.709Z,16.40
2022-08-26T03:38:11.483Z,16.40
2022-08-26T03:40:40.107Z,16.40
2022-08-26T03:43:10.180Z,16.40
2022-08-26T03:45:38.471Z,16.40
2022-08-26T03:48:06.320Z,16.50
2022-08-26T03:50:35.767Z,16.50
2022-08-26T03:53:04.405Z,16.50
2022-08-26T03:55:34.740Z,16.60
2022-08-26T03:58:02.666Z,16.60
2022-08-26T04:00:30.187Z,16.60
2022-08-26T04:02:58.271Z,16.60
2022-08-26T04:05:25.751Z,16.70
2022-08-26T04:07:53.248Z,16.70
2022-08-26T04:10:28.574Z,16.70
2022-08-26T04:12:58.835Z,16.80
2022-08-26T04:15:27.488Z,16.80
2022-08-26T04:17:56.081Z,16.90
2022-08-26T04:20:25.106Z,16.90
2022-08-26T04:22:52.886Z,17.00
2022-08-26T04:25:20.467Z,17.00
2022-08-26T04:27:48.548Z,17.10
2022-08-26T04:30:16.638Z,17.10
2022-08-26T04:32:44.353Z,17.10
2022-08-26T04:35:11.933Z,17.10
2022-08-26T04:37:39.289Z,17.20
2022-08-26T04:40:11.053Z,17.20
2022-08-26T04:42:38.547Z,17.30
2022-08-26T04:45:10.003Z,17.30
2022-08-26T04:47:37.846Z,17.40
2022-08-26T04:50:07.632Z,17.40
2022-08-26T04:52:36.479Z,17.40
2022-08-26T04:55:06.679Z,17.50
2022-08-26T04:57:36.471Z,17.50
2022-08-26T05:00:08.908Z,17.60
2022-08-26T05:02:36.667Z,17.60
2022-08-26T05:05:04.903Z,17.60
2022-08-26T05:07:32.595Z,17.70
2022-08-26T05:10:00.527Z,17.70
2022-08-26T05:12:29.860Z,17.80
2022-08-26T05:14:57.332Z,17.80
2022-08-26T05:17:24.854Z,17.90
2022-08-26T05:19:52.169Z,18.00
2022-08-26T05:22:20.471Z,18.00
2022-08-26T05:24:47.873Z,18.10
2022-08-26T05:27:15.884Z,18.10
2022-08-26T05:29:45.068Z,18.20
2022-08-26T05:32:12.768Z,18.20
2022-08-26T05:34:40.145Z,18.20
2022-08-26T05:37:10.407Z,18.10
2022-08-26T05:39:41.231Z,18.20
2022-08-26T05:42:10.843Z,18.20
2022-08-26T05:44:53.747Z,18.20
2022-08-26T05:47:23.486Z,18.20
2022-08-26T05:49:51.599Z,18.40
2022-08-26T05:52:20.020Z,18.50
2022-08-26T05:54:47.880Z,18.80
2022-08-26T05:57:15.717Z,18.90
2022-08-26T05:59:43.082Z,19.00
2022-08-26T06:02:10.488Z,19.20
2022-08-26T06:04:37.843Z,19.40
2022-08-26T06:07:05.370Z,19.40
2022-08-26T06:09:38.549Z,19.40
2022-08-26T06:12:06.970Z,19.30
2022-08-26T06:14:35.097Z,19.30
2022-08-26T06:17:02.511Z,19.40
2022-08-26T06:19:33.032Z,19.30
2022-08-26T06:22:23.356Z,19.40
2022-08-26T06:25:09.948Z,19.30
2022-08-26T06:27:37.519Z,19.30
2022-08-26T06:30:05.422Z,19.20
2022-08-26T06:32:33.633Z,19.20
2022-08-26T06:35:01.099Z,19.20
2022-08-26T06:37:28.884Z,19.10
2022-08-26T06:39:56.582Z,19.20
2022-08-26T06:42:25.266Z,19.30
2022-08-26T06:44:52.669Z,19.50
2022-08-26T06:47:19.920Z,19.70
2022-08-26T06:49:48.227Z,19.90
2022-08-26T06:52:22.500Z,20.00
2022-08-26T06:54:51.753Z,20.10
2022-08-26T06:57:20.370Z,20.20
2022-08-26T06:59:48.799Z,20.20
2022-08-26T07:02:18.716Z,20.20
2022-08-26T07:04:47.961Z,20.30
2022-08-26T07:07:16.234Z,20.40
2022-08-26T07:09:43.674Z,20.50
2022-08-26T07:12:11.054Z,20.50
2022-08-26T07:14:38.503Z,20.40
2022-08-26T07:17:10.063Z,20.50
2022-08-26T07:19:39.659Z,20.60
2022-08-26T07:22:07.186Z,20.70
2022-08-26T07:24:38.635Z,20.80
2022-08-26T07:27:10.284Z,21.00
2022-08-26T07:29:39.809Z,21.10
2022-08-26T07:32:08.097Z,21.30
2022-08-26T07:34:37.043Z,21.50
2022-08-26T07:37:05.115Z,21.50
2022-08-26T07:39:36.672Z,21.50
2022-08-26T07:42:07.773Z,21.60
2022-08-26T07:44:37.316Z,21.60
2022-08-26T07:47:10.543Z,21.70
2022-08-26T07:49:55.531Z,21.90
2022-08-26T07:52:26.557Z,22.00
2022-08-26T07:54:55.968Z,22.00
2022-08-26T07:57:24.272Z,22.20
2022-08-26T07:59:55.523Z,22.40
2022-08-26T08:02:25.027Z,22.60
2022-08-26T08:04:53.829Z,22.80
2022-08-26T08:07:38.368Z,22.90
2022-08-26T08:10:13.247Z,22.80
2022-08-26T08:12:42.963Z,22.90
2022-08-26T08:15:14.375Z,23.00
2022-08-26T08:17:46.386Z,23.00
2022-08-26T08:20:18.037Z,22.90
2022-08-26T08:22:46.550Z,22.90
2022-08-26T08:25:15.341Z,23.00
2022-08-26T08:27:45.538Z,23.20
2022-08-26T08:30:15.340Z,23.10
2022-08-26T08:32:50.167Z,23.10
2022-08-26T08:35:24.204Z,23.20
2022-08-26T08:37:55.211Z,23.40
2022-08-26T08:40:25.777Z,23.80
2022-08-26T08:43:05.182Z,23.90
2022-08-26T08:45:59.839Z,24.00
2022-08-26T08:48:33.740Z,24.10
2022-08-26T08:51:19.653Z,23.90
2022-08-26T08:53:49.922Z,23.90
2022-08-26T08:56:37.931Z,24.00
2022-08-26T08:59:17.690Z,24.20
2022-08-26T09:02:25.756Z,24.30
2022-08-26T09:04:58.868Z,24.20
2022-08-26T09:07:48.459Z,24.40
2022-08-26T09:10:51.119Z,24.50
2022-08-26T09:13:26.129Z,24.30
2022-08-26T09:16:10.304Z,24.20
2022-08-26T09:19:14.929Z,24.10
2022-08-26T09:21:46.674Z,24.10
2022-08-26T09:24:22.293Z,24.20
2022-08-26T09:26:58.026Z,24.20
2022-08-26T09:29:34.604Z,24.30
2022-08-26T09:32:24.546Z,24.30
2022-08-26T09:35:02.580Z,24.20
2022-08-26T09:37:40.532Z,24.20
2022-08-26T09:40:20.343Z,24.30
2022-08-26T09:42:48.276Z,24.40
2022-08-26T09:45:15.743Z,24.30
2022-08-26T09:47:47.936Z,24.20
2022-08-26T09:50:29.143Z,24.20
2022-08-26T09:53:14.718Z,24.50
2022-08-26T09:55:48.232Z,25.00
2022-08-26T09:58:34.381Z,25.40
2022-08-26T10:01:08.392Z,25.80
2022-08-26T10:03:39.464Z,26.20
2022-08-26T10:06:08.200Z,26.80
2022-08-26T10:08:47.410Z,26.90
2022-08-26T10:11:19.655Z,26.90
2022-08-26T10:13:58.567Z,26.60
2022-08-26T10:16:42.960Z,26.40
2022-08-26T10:19:11.905Z,26.90
2022-08-26T10:21:52.264Z,26.80
2022-08-26T10:24:40.486Z,26.60
2022-08-26T10:27:12.239Z,27.20
2022-08-26T10:29:46.697Z,27.00
2022-08-26T10:32:41.400Z,27.60
2022-08-26T10:35:12.613Z,28.10
2022-08-26T10:37:48.810Z,27.70
2022-08-26T10:40:24.370Z,27.80
2022-08-26T10:43:11.259Z,28.50
2022-08-26T10:45:47.231Z,28.80
2022-08-26T10:48:38.476Z,28.90
2022-08-26T10:51:06.527Z,28.90
2022-08-26T10:53:59.107Z,29.20
2022-08-26T10:56:33.691Z,29.40
2022-08-26T10:59:21.191Z,28.60
2022-08-26T11:01:52.711Z,29.00
2022-08-26T11:04:47.727Z,29.80
2022-08-26T11:07:40.064Z,29.90
2022-08-26T11:10:19.727Z,29.90
2022-08-26T11:12:50.947Z,30.40
2022-08-26T11:15:24.715Z,30.90
2022-08-26T11:17:52.253Z,29.90
2022-08-26T11:20:41.540Z,29.10
2022-08-26T11:23:24.410Z,29.20
2022-08-26T11:26:10.129Z,29.20
2022-08-26T11:28:53.567Z,29.80
2022-08-26T11:31:25.581Z,30.40
2022-08-26T11:34:00.249Z,30.70
2022-08-26T11:36:42.001Z,32.30
2022-08-26T11:39:15.372Z,32.40
2022-08-26T11:41:45.977Z,32.90
2022-08-26T11:44:22.727Z,33.40
2022-08-26T11:46:59.691Z,33.90
2022-08-26T11:49:29.381Z,33.90
2022-08-26T11:52:29.127Z,34.10
2022-08-26T11:55:09.682Z,32.60
2022-08-26T11:57:52.091Z,30.30
2022-08-26T12:00:26.775Z,28.50
2022-08-26T12:02:55.797Z,28.10
2022-08-26T12:05:29.557Z,28.80
2022-08-26T12:08:11.880Z,29.20
2022-08-26T12:10:40.511Z,29.10
2022-08-26T12:13:08.973Z,29.90
2022-08-26T12:15:36.406Z,30.20
2022-08-26T12:18:28.867Z,31.20
2022-08-26T12:20:58.871Z,32.00
2022-08-26T12:23:47.467Z,31.90
2022-08-26T12:26:30.481Z,32.90
2022-08-26T12:29:19.728Z,32.70
2022-08-26T12:31:48.098Z,32.30
2022-08-26T12:34:18.102Z,33.20
2022-08-26T12:36:56.766Z,33.90
2022-08-26T12:39:34.296Z,34.10
2022-08-26T12:42:28.641Z,34.10
2022-08-26T12:45:06.709Z,32.60
2022-08-26T12:47:43.450Z,33.20
2022-08-26T12:50:22.058Z,34.30
2022-08-26T12:53:02.824Z,33.20
2022-08-26T12:55:32.888Z,33.70
2022-08-26T12:58:13.548Z,33.00
2022-08-26T13:00:52.710Z,33.30
2022-08-26T13:03:45.961Z,33.80
2022-08-26T13:06:22.526Z,33.80
2022-08-26T13:08:51.724Z,33.50
2022-08-26T13:11:29.598Z,33.20
2022-08-26T13:14:07.141Z,33.90
2022-08-26T13:16:36.438Z,34.40
2022-08-26T13:19:10.483Z,34.30
2022-08-26T13:21:53.971Z,34.20
2022-08-26T13:24:23.503Z,34.90
2022-08-26T13:26:50.974Z,34.60
2022-08-26T13:29:19.738Z,35.30
2022-08-26T13:31:48.357Z,35.40
2022-08-26T13:34:19.838Z,35.40
2022-08-26T13:36:52.487Z,35.50
2022-08-26T13:39:20.171Z,35.20
2022-08-26T13:41:59.772Z,35.50
2022-08-26T13:44:27.769Z,35.30
2022-08-26T13:46:56.333Z,35.90
2022-08-26T13:49:23.813Z,35.60
2022-08-26T13:51:51.331Z,33.60
2022-08-26T13:54:18.823Z,33.10
2022-08-26T13:56:46.327Z,34.00
2022-08-26T13:59:13.862Z,34.70
2022-08-26T14:01:41.716Z,35.80
2022-08-26T14:04:09.285Z,36.00
2022-08-26T14:06:37.695Z,34.50
2022-08-26T14:09:05.753Z,34.70
2022-08-26T14:11:36.998Z,35.70
2022-08-26T14:14:18.540Z,35.20
2022-08-26T14:16:58.992Z,34.80
2022-08-26T14:19:31.895Z,35.20
2022-08-26T14:22:01.186Z,35.50
2022-08-26T14:24:29.277Z,35.00
2022-08-26T14:26:56.989Z,35.30
2022-08-26T14:29:24.682Z,34.90
2022-08-26T14:31:52.428Z,34.00
2022-08-26T14:34:19.922Z,33.70
2022-08-26T14:36:47.302Z,34.40
2022-08-26T14:39:15.155Z,35.00
2022-08-26T14:41:53.738Z,35.30
2022-08-26T14:44:23.948Z,35.90
2022-08-26T14:46:53.277Z,34.90
2022-08-26T14:49:29.408Z,36.00
2022-08-26T14:51:58.863Z,34.20
2022-08-26T14:54:31.466Z,34.50
2022-08-26T14:57:07.760Z,35.60
2022-08-26T14:59:39.409Z,35.40
2022-08-26T15:02:13.939Z,35.50
2022-08-26T15:05:00.255Z,35.50
2022-08-26T15:07:27.844Z,35.70
2022-08-26T15:09:55.209Z,35.80
2022-08-26T15:12:23.026Z,36.60
2022-08-26T15:14:50.567Z,36.90
2022-08-26T15:17:18.204Z,37.10
2022-08-26T15:19:45.650Z,36.00
2022-08-26T15:22:13.110Z,35.10
2022-08-26T15:24:40.759Z,35.50
2022-08-26T15:27:09.370Z,34.90
2022-08-26T15:29:37.149Z,35.20
2022-08-26T15:32:05.370Z,35.70
2022-08-26T15:34:32.845Z,35.70
2022-08-26T15:37:00.367Z,35.70
2022-08-26T15:39:28.175Z,36.20
2022-08-26T15:42:00.114Z,36.40
2022-08-26T15:44:28.086Z,35.90
2022-08-26T15:46:58.621Z,35.40
2022-08-26T15:49:27.829Z,35.20
2022-08-26T15:51:55.421Z,35.40
2022-08-26T15:54:24.272Z,36.00
2022-08-26T15:56:52.643Z,35.50
2022-08-26T15:59:21.862Z,35.70
2022-08-26T16:01:50.490Z,35.60
2022-08-26T16:04:18.964Z,35.40
2022-08-26T16:06:50.534Z,35.50
2022-08-26T16:09:19.667Z,35.50
2022-08-26T16:11:47.304Z,35.50
2022-08-26T16:14:14.725Z,35.70
2022-08-26T16:16:42.285Z,35.40
2022-08-26T16:19:12.182Z,35.10
2022-08-26T16:21:40.579Z,35.00
2022-08-26T16:24:08.348Z,34.70
2022-08-26T16:26:39.648Z,34.20
2022-08-26T16:29:10.283Z,34.20
2022-08-26T16:31:38.564Z,34.30
2022-08-26T16:34:07.262Z,33.40
2022-08-26T16:36:47.839Z,32.80
2022-08-26T16:39:17.292Z,31.70
2022-08-26T16:41:48.949Z,30.10
2022-08-26T16:44:16.413Z,29.10
2022-08-26T16:46:44.953Z,28.40
2022-08-26T16:49:14.306Z,27.80
2022-08-26T16:51:44.209Z,27.10
2022-08-26T16:54:12.244Z,26.60
2022-08-26T16:56:39.943Z,26.50
2022-08-26T16:59:12.009Z,26.20
2022-08-26T17:01:39.497Z,26.10
2022-08-26T17:04:07.028Z,26.00
2022-08-26T17:06:34.836Z,25.90
2022-08-26T17:09:02.590Z,25.80
2022-08-26T17:11:30.448Z,25.60
2022-08-26T17:13:58.048Z,25.50
2022-08-26T17:16:26.983Z,25.40
2022-08-26T17:18:59.011Z,25.30
2022-08-26T17:21:28.306Z,25.20
2022-08-26T17:23:56.694Z,25.10
2022-08-26T17:26:24.495Z,24.80
2022-08-26T17:28:52.160Z,24.70
2022-08-26T17:31:19.899Z,24.60
2022-08-26T17:33:53.395Z,24.40
2022-08-26T17:36:23.418Z,24.20
2022-08-26T17:38:57.082Z,24.10
2022-08-26T17:41:25.214Z,24.10
2022-08-26T17:43:52.620Z,24.00
2022-08-26T17:46:20.085Z,23.80
2022-08-26T17:48:48.657Z,23.80
2022-08-26T17:51:19.539Z,23.80
2022-08-26T17:53:51.915Z,23.60
2022-08-26T17:56:25.288Z,23.50
2022-08-26T17:58:56.883Z,23.40
2022-08-26T18:01:26.474Z,23.30
2022-08-26T18:03:59.690Z,23.30
2022-08-26T18:06:30.682Z,23.30
2022-08-26T18:08:58.848Z,23.30
2022-08-26T18:11:27.325Z,23.20
2022-08-26T18:13:54.840Z,23.30
2022-08-26T18:16:22.254Z,23.30
2022-08-26T18:18:53.680Z,23.30
2022-08-26T18:21:24.296Z,23.20
2022-08-26T18:23:53.174Z,23.10
2022-08-26T18:26:24.057Z,23.20
2022-08-26T18:28:51.869Z,23.20
2022-08-26T18:31:19.896Z,23.20
2022-08-26T18:33:47.958Z,23.00
2022-08-26T18:36:20.298Z,23.00
2022-08-26T18:38:54.176Z,22.90
2022-08-26T18:41:23.588Z,22.80
2022-08-26T18:43:53.341Z,22.70
2022-08-26T18:46:25.285Z,22.60
2022-08-26T18:48:55.183Z,22.60
2022-08-26T18:51:25.912Z,22.50
2022-08-26T18:53:53.996Z,22.40
2022-08-26T18:56:21.463Z,22.40
2022-08-26T18:58:49.618Z,22.30
2022-08-26T19:01:19.316Z,22.30
2022-08-26T19:03:48.351Z,22.20
2022-08-26T19:06:22.156Z,22.10
2022-08-26T19:08:50.972Z,22.10
2022-08-26T19:11:31.371Z,22.00
2022-08-26T19:13:59.373Z,22.00
2022-08-26T19:16:27.527Z,22.00
2022-08-26T19:18:55.977Z,21.90
2022-08-26T19:21:24.684Z,21.70
2022-08-26T19:23:55.776Z,21.70
2022-08-26T19:26:24.562Z,21.70
2022-08-26T19:28:53.215Z,21.60
2022-08-26T19:31:20.868Z,21.50
2022-08-26T19:33:48.699Z,21.40
2022-08-26T19:36:20.339Z,21.40
2022-08-26T19:38:54.465Z,21.30
2022-08-26T19:41:36.602Z,21.40
2022-08-26T19:44:08.899Z,21.20
2022-08-26T19:49:04.226Z,21.10
2022-08-26T19:51:35.340Z,21.00
2022-08-26T19:54:03.105Z,21.10
2022-08-26T19:56:30.627Z,21.00
2022-08-26T19:58:58.503Z,20.90
2022-08-26T20:01:26.282Z,20.90
2022-08-26T20:03:53.609Z,20.80
2022-08-26T20:06:21.693Z,20.80
2022-08-26T20:08:50.826Z,20.80
2022-08-26T20:11:21.200Z,20.70
2022-08-26T20:13:48.730Z,20.70
2022-08-26T20:16:17.186Z,20.60
2022-08-26T20:19:03.940Z,20.60
2022-08-26T20:21:35.953Z,20.50
2022-08-26T20:24:10.465Z,20.50
2022-08-26T20:26:39.774Z,20.60
2022-08-26T20:29:09.387Z,20.60
2022-08-26T20:31:37.046Z,20.60
2022-08-26T20:34:06.308Z,20.60
2022-08-26T20:36:34.448Z,20.50
2022-08-26T20:39:02.125Z,20.50
2022-08-26T20:41:29.536Z,20.60
2022-08-26T20:43:57.383Z,20.40
2022-08-26T20:46:25.728Z,20.30
2022-08-26T20:48:54.279Z,20.30
2022-08-26T20:51:26.568Z,20.30
2022-08-26T20:53:54.287Z,20.30
2022-08-26T20:56:24.638Z,20.30
2022-08-26T20:58:54.694Z,20.30
2022-08-26T21:01:25.471Z,20.30
2022-08-26T21:03:54.163Z,20.20
2022-08-26T21:06:21.938Z,20.20
2022-08-26T21:08:50.902Z,20.10
2022-08-26T21:11:18.639Z,20.20
2022-08-26T21:14:03.820Z,20.10
2022-08-26T21:16:31.871Z,20.10
2022-08-26T21:19:00.541Z,20.10
2022-08-26T21:21:28.333Z,20.10
2022-08-26T21:23:56.253Z,20.10
2022-08-26T21:26:24.318Z,20.00
2022-08-26T21:28:52.368Z,20.00
2022-08-26T21:31:22.273Z,19.90
2022-08-26T21:33:51.354Z,20.00
2022-08-26T21:36:19.674Z,20.00
2022-08-26T21:38:47.714Z,20.00
2022-08-26T21:41:25.273Z,19.90
2022-08-26T21:43:55.973Z,19.90
2022-08-26T21:46:24.889Z,19.80
2022-08-26T21:48:57.791Z,19.80
2022-08-26T21:51:28.453Z,19.80
2022-08-26T21:53:57.058Z,19.80
2022-08-26T21:56:26.639Z,19.80
2022-08-26T21:58:55.896Z,19.80
2022-08-26T22:01:25.790Z,19.80
2022-08-26T22:03:53.935Z,19.80
2022-08-26T22:06:26.814Z,19.70
2022-08-26T22:08:55.578Z,19.70
2022-08-26T22:11:24.607Z,19.70
2022-08-26T22:13:52.489Z,19.70
2022-08-26T22:16:20.240Z,19.70
2022-08-26T22:18:47.808Z,19.70
2022-08-26T22:21:18.530Z,19.70
2022-08-26T22:23:46.337Z,19.60
2022-08-26T22:26:15.614Z,19.60
2022-08-26T22:28:58.543Z,19.60
2022-08-26T22:31:37.134Z,19.60
2022-08-26T22:34:09.491Z,19.50
2022-08-26T22:36:43.313Z,19.50
2022-08-26T22:39:16.450Z,19.60
2022-08-26T22:41:45.654Z,19.60
2022-08-26T22:44:13.454Z,19.60
2022-08-26T22:46:41.894Z,19.50
2022-08-26T22:49:16.694Z,19.50
2022-08-26T22:51:45.665Z,19.50
2022-08-26T22:54:14.101Z,19.50
2022-08-26T22:56:41.810Z,19.50
2022-08-26T22:59:09.814Z,19.40
2022-08-26T23:01:42.894Z,19.40
2022-08-26T23:04:11.775Z,19.30
2022-08-26T23:06:42.174Z,19.30
2022-08-26T23:09:11.059Z,19.30
2022-08-26T23:11:42.372Z,19.30
2022-08-26T23:14:10.168Z,19.30
2022-08-26T23:16:39.592Z,19.20
2022-08-26T23:19:08.811Z,19.10
2022-08-26T23:21:36.769Z,19.10
2022-08-26T23:24:05.577Z,19.10
2022-08-26T23:26:33.464Z,19.00
2022-08-26T23:29:01.661Z,19.00
2022-08-26T23:31:29.328Z,19.00
2022-08-26T23:34:15.527Z,19.00
2022-08-26T23:36:45.703Z,19.00
2022-08-26T23:39:15.363Z,19.00
2022-08-26T23:41:43.183Z,19.00
2022-08-26T23:44:10.767Z,18.90
2022-08-26T23:46:38.535Z,18.80
2022-08-26T23:49:06.291Z,18.80
2022-08-26T23:51:52.344Z,18.80
2022-08-26T23:54:20.021Z,18.80
2022-08-26T23:56:47.457Z,18.80
2022-08-26T23:59:15.944Z,18.80
